Time;durP1;ratioP1;P1;durP2;ratioP2;P2;SDS_P1;SDS_P2;PMS_P1;PMS_P2;Temp;Humidity;BMP_temperature;BMP_pressure;BME280_temperature;BME280_humidity;BME280_pressure;Samples;Min_cycle;Max_cycle;Signal;HPM_P1;HPM_P2
2022/09/29 00:02:13;;;;;;;0.80;0.80;;;13.70;78.90;13.90;95018.00;;;;5048670;28;20294;-86
2022/09/29 00:04:40;;;;;;;0.40;0.40;;;13.70;78.70;13.80;95024.00;;;;5050514;28;20212;-87
2022/09/29 00:07:09;;;;;;;1.33;1.27;;;13.70;78.60;13.80;95019.00;;;;5049958;28;20197;-87
2022/09/29 00:09:37;;;;;;;0.73;0.73;;;13.70;78.60;13.80;95018.00;;;;5051058;28;20211;-86
2022/09/29 00:12:05;;;;;;;0.77;0.70;;;13.70;78.50;13.80;95021.00;;;;5052730;28;20225;-87
2022/09/29 00:14:37;;;;;;;0.80;0.80;;;13.70;78.40;13.70;95023.00;;;;5053192;28;20688;-87
2022/09/29 00:17:09;;;;;;;0.60;0.60;;;13.60;78.20;13.70;95024.00;;;;5045238;28;20204;-87
2022/09/29 00:19:37;;;;;;;0.67;0.67;;;13.60;78.10;13.60;95020.00;;;;5052402;28;20212;-87
2022/09/29 00:22:07;;;;;;;0.80;0.80;;;13.60;78.00;13.60;95024.00;;;;5053190;28;20232;-87
2022/09/29 00:24:37;;;;;;;0.70;0.70;;;13.60;77.80;13.50;95027.00;;;;5052495;28;20196;-87
2022/09/29 00:27:05;;;;;;;0.97;0.97;;;13.50;77.70;13.50;95018.00;;;;5053384;28;20276;-87
2022/09/29 00:29:32;;;;;;;0.70;0.70;;;13.50;77.80;13.50;95020.00;;;;5053670;28;20277;-87
2022/09/29 00:32:00;;;;;;;0.63;0.63;;;13.50;77.80;13.40;95017.00;;;;5053175;28;20626;-87
2022/09/29 00:34:29;;;;;;;0.60;0.60;;;13.40;77.70;13.40;95006.00;;;;5053137;28;20200;-87
2022/09/29 00:36:56;;;;;;;0.73;0.70;;;13.40;77.70;13.40;95015.00;;;;5053113;28;20208;-87
2022/09/29 00:39:24;;;;;;;0.63;0.63;;;13.40;77.60;13.40;95009.00;;;;5052876;28;20201;-87
2022/09/29 00:41:51;;;;;;;0.60;0.60;;;13.30;77.60;13.30;95005.00;;;;5044867;28;20638;-87
2022/09/29 00:45:02;;;;;;;1.00;1.00;;;13.30;77.80;13.30;95009.00;;;;5053138;28;20204;-86
2022/09/29 00:47:34;;;;;;;2.07;0.60;;;13.30;77.60;13.20;95007.00;;;;5050163;28;20220;-87
2022/09/29 00:50:12;;;;;;;0.70;0.70;;;13.20;77.80;13.20;95001.00;;;;5053852;28;20607;-87
2022/09/29 00:52:44;;;;;;;1.10;1.00;;;13.20;78.00;13.20;95007.00;;;;5050954;28;20240;-87
2022/09/29 00:55:21;;;;;;;0.63;0.60;;;13.20;78.80;13.20;95003.00;;;;5054100;28;20200;-87
2022/09/29 00:57:53;;;;;;;1.50;0.90;;;13.10;78.10;13.20;95002.00;;;;5049301;28;20251;-87
2022/09/29 01:00:21;;;;;;;1.10;0.80;;;13.10;78.40;13.20;95015.00;;;;5048524;28;20259;-87
2022/09/29 01:03:06;;;;;;;1.30;0.73;;;13.10;78.40;13.20;95013.00;;;;5052801;28;20239;-87
2022/09/29 01:05:50;;;;;;;0.60;0.60;;;13.10;78.20;13.10;94996.00;;;;5053476;28;20425;-87
2022/09/29 01:08:24;;;;;;;0.73;0.73;;;13.10;78.20;13.10;94995.00;;;;5052992;28;20203;-87
2022/09/29 01:10:53;;;;;;;0.97;0.80;;;13.10;77.90;13.00;94991.00;;;;5048787;28;20228;-87
2022/09/29 01:13:22;;;;;;;0.77;0.77;;;13.00;77.60;13.00;94984.00;;;;5051876;28;20620;-87
2022/09/29 01:15:49;;;;;;;0.80;0.80;;;13.00;77.60;12.90;94983.00;;;;5052405;28;20732;-86
2022/09/29 01:18:16;;;;;;;1.13;0.73;;;12.90;77.70;12.90;94977.00;;;;5052127;28;20280;-87
2022/09/29 01:21:02;;;;;;;0.90;0.80;;;12.90;77.80;12.90;94975.00;;;;5050795;28;20321;-87
2022/09/29 01:24:17;;;;;;;1.40;0.70;;;12.90;77.90;12.90;94981.00;;;;5030951;28;20728;-87
2022/09/29 01:27:16;;;;;;;1.17;1.07;;;12.90;78.00;12.90;94974.00;;;;5043541;28;20192;-87
2022/09/29 01:30:19;;;;;;;0.90;0.77;;;12.90;78.30;12.90;94975.00;;;;5050116;28;20228;-87
2022/09/29 01:33:22;;;;;;;4.27;1.00;;;12.90;78.50;12.90;94972.00;;;;5046821;28;20220;-87
2022/09/29 01:36:04;;;;;;;0.77;0.77;;;12.80;78.30;12.90;94969.00;;;;5053232;28;20181;-87
2022/09/29 01:38:53;;;;;;;0.70;0.67;;;12.80;78.40;12.90;94978.00;;;;5052516;28;20192;-88
2022/09/29 01:41:33;;;;;;;1.70;0.80;;;12.80;78.60;12.90;94976.00;;;;5052806;28;20232;-87
2022/09/29 01:44:13;;;;;;;0.83;0.83;;;12.80;78.60;12.90;94985.00;;;;5050943;28;20200;-87
2022/09/29 01:46:48;;;;;;;1.57;1.47;;;12.80;78.60;12.90;94979.00;;;;5049103;28;20243;-88
2022/09/29 01:49:21;;;;;;;1.47;1.10;;;12.80;78.70;12.90;94973.00;;;;5052656;28;20215;-87
2022/09/29 01:51:57;;;;;;;0.90;0.90;;;12.80;78.70;12.90;94981.00;;;;5053038;28;20262;-87
2022/09/29 01:54:33;;;;;;;1.30;0.80;;;12.80;78.60;12.90;94973.00;;;;5048897;28;20210;-88
2022/09/29 01:57:08;;;;;;;1.10;1.00;;;12.80;78.70;12.90;94977.00;;;;5042836;28;20223;-87
2022/09/29 01:59:45;;;;;;;1.10;1.10;;;12.80;78.90;12.90;94972.00;;;;5052179;28;20230;-88
2022/09/29 02:02:18;;;;;;;1.20;1.10;;;12.80;79.10;12.90;94965.00;;;;5052664;28;20228;-88
2022/09/29 02:04:54;;;;;;;1.17;0.90;;;12.80;79.20;13.00;94978.00;;;;5051335;28;20209;-88
2022/09/29 02:07:27;;;;;;;1.30;0.80;;;12.80;79.10;13.00;94974.00;;;;5051967;28;20334;-88
2022/09/29 02:10:02;;;;;;;1.00;0.80;;;12.80;79.00;13.00;94977.00;;;;5051357;28;20217;-88
2022/09/29 02:12:35;;;;;;;1.10;0.90;;;12.90;79.10;13.00;94973.00;;;;5051168;28;20218;-88
2022/09/29 02:15:08;;;;;;;0.70;0.70;;;12.90;79.20;13.00;94973.00;;;;5052004;28;20635;-88
2022/09/29 02:17:40;;;;;;;0.73;0.73;;;12.90;79.20;13.00;94974.00;;;;5052350;28;20200;-88
2022/09/29 02:20:13;;;;;;;1.83;0.80;;;12.90;79.30;13.10;94976.00;;;;5052235;28;20192;-88
2022/09/29 02:22:43;;;;;;;0.77;0.77;;;12.90;79.40;13.10;94972.00;;;;5050628;28;20301;-88
2022/09/29 02:25:18;;;;;;;1.13;0.60;;;12.90;79.40;13.00;94974.00;;;;5051913;28;20243;-88
2022/09/29 02:27:49;;;;;;;1.67;0.57;;;12.90;79.40;13.10;94970.00;;;;5052022;28;20556;-88
2022/09/29 02:30:17;;;;;;;0.73;0.73;;;12.90;79.40;13.10;94965.00;;;;5051253;28;20255;-88
2022/09/29 02:32:47;;;;;;;0.83;0.83;;;12.80;79.30;13.10;94970.00;;;;5051745;28;20220;-88
2022/09/29 02:35:16;;;;;;;0.60;0.60;;;13.00;79.40;13.10;94974.00;;;;5050598;28;20287;-88
2022/09/29 02:38:06;;;;;;;0.70;0.70;;;13.00;79.50;13.10;94977.00;;;;5051313;28;20653;-88
2022/09/29 02:40:50;;;;;;;0.60;0.60;;;13.00;79.50;13.10;94983.00;;;;5050262;28;20189;-88
2022/09/29 02:43:41;;;;;;;0.80;0.80;;;13.00;79.50;13.10;94982.00;;;;5050440;28;20242;-88
2022/09/29 02:46:28;;;;;;;0.70;0.70;;;13.00;79.50;13.10;94977.00;;;;5041521;28;20188;-87
2022/09/29 02:49:33;;;;;;;0.90;0.90;;;13.00;79.60;13.10;94979.00;;;;5031862;28;20634;-88
2022/09/29 02:52:15;;;;;;;1.17;0.90;;;13.10;79.70;13.20;94975.00;;;;5044346;28;20224;-88
2022/09/29 02:55:07;;;;;;;1.23;0.80;;;13.10;79.70;13.20;94972.00;;;;5050736;28;20200;-87
2022/09/29 02:57:47;;;;;;;1.33;0.83;;;13.10;79.80;13.20;94972.00;;;;5051145;28;20189;-89
2022/09/29 03:00:32;;;;;;;0.83;0.83;;;13.10;79.60;13.20;94980.00;;;;5051304;28;20197;-88
2022/09/29 03:05:57;;;;;;;1.53;0.80;;;13.10;79.80;13.20;94978.00;;;;5050195;28;20204;-88
2022/09/29 03:08:26;;;;;;;0.80;0.80;;;13.10;79.80;13.20;94971.00;;;;5050069;28;20279;-88
2022/09/29 03:10:57;;;;;;;1.00;0.60;;;13.10;79.70;13.20;94971.00;;;;5050193;28;20247;-87
2022/09/29 03:13:26;;;;;;;1.27;0.80;;;13.10;79.70;13.20;94963.00;;;;5050750;28;20201;-88
2022/09/29 03:15:53;;;;;;;0.70;0.70;;;13.10;79.70;13.20;94974.00;;;;5038402;28;20200;-88
2022/09/29 03:18:32;;;;;;;0.87;0.87;;;13.10;79.60;13.30;94974.00;;;;5050591;28;20291;-88
2022/09/29 03:21:06;;;;;;;1.33;0.70;;;13.20;79.70;13.30;94971.00;;;;5039796;28;20776;-89
2022/09/29 03:23:39;;;;;;;0.83;0.83;;;13.10;79.60;13.30;94976.00;;;;5050714;28;20624;-87
2022/09/29 03:26:06;;;;;;;1.33;0.90;;;13.20;79.70;13.30;94967.00;;;;5049454;28;20661;-89
2022/09/29 03:28:34;;;;;;;0.77;0.77;;;13.20;79.70;13.30;94968.00;;;;5047988;28;20776;-88
2022/09/29 03:31:06;;;;;;;0.80;0.80;;;13.20;79.60;13.30;94953.00;;;;5045335;28;20212;-88
2022/09/29 03:33:38;;;;;;;1.17;0.60;;;13.20;79.50;13.30;94953.00;;;;5046411;28;20653;-88
2022/09/29 03:36:07;;;;;;;0.70;0.70;;;13.20;79.40;13.30;94960.00;;;;5048647;28;20239;-88
2022/09/29 03:38:36;;;;;;;2.13;1.13;;;13.20;79.30;13.30;94957.00;;;;5048841;28;20291;-89
2022/09/29 03:41:04;;;;;;;0.80;0.80;;;13.20;79.20;13.30;94956.00;;;;5048576;28;20213;-87
2022/09/29 03:43:32;;;;;;;0.73;0.73;;;13.20;79.10;13.30;94959.00;;;;5048811;28;20216;-88
2022/09/29 03:46:14;;;;;;;0.70;0.70;;;13.20;79.00;13.30;94963.00;;;;5050699;28;20192;-87
2022/09/29 03:48:44;;;;;;;0.90;0.53;;;13.20;78.90;13.20;94962.00;;;;5054013;28;20208;-88
2022/09/29 03:51:12;;;;;;;1.07;0.70;;;13.20;78.70;13.20;94961.00;;;;5047811;28;20275;-87
2022/09/29 03:53:48;;;;;;;0.77;0.70;;;13.20;78.50;13.20;94964.00;;;;5040513;28;20693;-88
2022/09/29 03:56:32;;;;;;;0.60;0.60;;;13.10;78.20;13.10;94956.00;;;;5054160;28;20196;-88
2022/09/29 03:59:04;;;;;;;0.87;0.87;;;13.10;78.20;13.10;94953.00;;;;5054772;28;20205;-88
2022/09/29 04:01:33;;;;;;;0.87;0.80;;;13.10;78.20;13.10;94946.00;;;;5052441;28;20220;-88
2022/09/29 04:04:01;;;;;;;1.00;0.63;;;13.00;78.20;13.10;94940.00;;;;5054138;28;20189;-88
2022/09/29 04:06:29;;;;;;;0.77;0.77;;;13.00;78.20;13.00;94946.00;;;;5054345;28;20322;-87
2022/09/29 04:08:57;;;;;;;0.80;0.80;;;13.00;78.50;13.00;94949.00;;;;5054511;28;20216;-89
2022/09/29 04:11:24;;;;;;;0.80;0.70;;;13.00;78.60;13.00;94949.00;;;;5053586;28;20676;-87
2022/09/29 04:13:51;;;;;;;0.90;0.90;;;13.00;78.60;13.00;94951.00;;;;5054046;28;20281;-88
2022/09/29 04:16:19;;;;;;;0.80;0.80;;;12.90;78.60;13.00;94951.00;;;;5054123;28;20207;-88
2022/09/29 04:18:48;;;;;;;0.60;0.60;;;12.90;78.60;13.00;94954.00;;;;5052853;28;20272;-87
2022/09/29 04:21:16;;;;;;;0.90;0.90;;;12.90;78.70;13.00;94949.00;;;;5053888;28;20216;-88
2022/09/29 04:23:49;;;;;;;0.87;0.87;;;12.90;79.40;13.00;94954.00;;;;5052295;28;20205;-88
2022/09/29 04:26:19;;;;;;;1.47;0.97;;;12.90;78.80;13.00;94959.00;;;;5054205;28;20231;-89
2022/09/29 04:28:47;;;;;;;0.63;0.63;;;12.90;78.90;13.00;94966.00;;;;5054412;28;20201;-89
2022/09/29 04:31:14;;;;;;;0.80;0.80;;;12.90;78.90;13.00;94966.00;;;;5053615;28;20217;-89
2022/09/29 04:33:41;;;;;;;1.10;1.00;;;12.90;79.00;13.00;94964.00;;;;5053328;28;20311;-88
2022/09/29 04:36:09;;;;;;;0.97;0.80;;;12.90;79.10;13.00;94965.00;;;;5033832;28;20198;-88
2022/09/29 04:38:36;;;;;;;2.40;1.00;;;12.90;79.20;13.00;94972.00;;;;5047501;28;20189;-90
2022/09/29 04:41:03;;;;;;;0.70;0.70;;;12.90;79.30;13.00;94974.00;;;;5053444;28;20267;-89
2022/09/29 04:43:32;;;;;;;1.13;1.10;;;12.90;79.40;13.00;94978.00;;;;5053056;28;20239;-88
2022/09/29 04:46:06;;;;;;;1.00;1.00;;;12.90;79.40;13.00;94975.00;;;;5052289;28;20291;-89
2022/09/29 04:48:34;;;;;;;0.90;0.90;;;12.90;79.50;13.00;94974.00;;;;5053494;28;20641;-88
2022/09/29 04:51:02;;;;;;;2.07;0.90;;;12.90;79.40;13.00;94974.00;;;;5053308;28;20232;-87
2022/09/29 04:53:31;;;;;;;1.00;1.00;;;12.90;79.50;13.10;94971.00;;;;5052929;28;20294;-88
2022/09/29 04:55:58;;;;;;;3.50;1.23;;;12.90;79.60;13.10;94973.00;;;;5053150;28;20212;-88
2022/09/29 04:58:26;;;;;;;2.17;1.20;;;12.90;79.70;13.10;94970.00;;;;5051045;28;20216;-88
2022/09/29 05:00:55;;;;;;;1.27;1.17;;;13.00;79.80;13.10;94970.00;;;;5053671;28;20236;-89
2022/09/29 05:03:24;;;;;;;2.33;1.07;;;13.00;79.70;13.10;94971.00;;;;5052039;28;20204;-88
2022/09/29 05:05:55;;;;;;;1.13;1.13;;;13.00;79.70;13.10;94964.00;;;;5053108;28;20298;-88
2022/09/29 05:08:26;;;;;;;1.80;1.10;;;13.00;79.90;13.10;94970.00;;;;5053841;28;20197;-88
2022/09/29 05:10:57;;;;;;;1.23;1.13;;;13.00;79.80;13.20;94970.00;;;;5089727;22;20235;-83
2022/09/29 05:13:25;;;;;;;1.03;1.00;;;13.00;80.50;13.20;94970.00;;;;5063446;28;20302;-83
2022/09/29 05:16:00;;;;;;;1.57;1.37;;;13.00;79.80;13.20;94965.00;;;;5072205;28;20224;-83
2022/09/29 05:18:28;;;;;;;1.30;1.20;;;13.10;79.80;13.20;94950.00;;;;5067195;28;20198;-84
2022/09/29 05:20:56;;;;;;;1.53;1.20;;;13.10;79.90;13.20;94959.00;;;;5066179;28;20453;-85
2022/09/29 05:23:23;;;;;;;1.70;1.30;;;13.10;79.80;13.20;94957.00;;;;5061821;28;20231;-85
2022/09/29 05:25:50;;;;;;;2.13;1.27;;;13.10;79.80;13.30;94962.00;;;;5072598;28;20254;-85
2022/09/29 05:28:19;;;;;;;1.30;1.30;;;13.10;79.70;13.30;94961.00;;;;5072563;28;20204;-85
2022/09/29 05:30:46;;;;;;;1.43;1.33;;;13.10;79.70;13.30;94964.00;;;;5072931;28;20239;-86
2022/09/29 05:33:15;;;;;;;3.00;1.40;;;13.10;79.70;13.40;94960.00;;;;5071971;28;20220;-84
2022/09/29 05:35:43;;;;;;;1.47;1.10;;;13.10;79.70;13.40;94955.00;;;;5069851;28;20197;-84
2022/09/29 05:38:12;;;;;;;1.73;1.50;;;13.20;79.70;13.40;94961.00;;;;5065089;28;20232;-85
2022/09/29 05:40:42;;;;;;;0.90;0.90;;;13.10;79.50;13.40;94954.00;;;;5064208;28;20220;-84
2022/09/29 05:43:10;;;;;;;1.33;1.30;;;13.20;79.40;13.40;94953.00;;;;5053175;28;20278;-85
2022/09/29 05:45:39;;;;;;;0.90;0.90;;;13.20;79.30;13.40;94948.00;;;;5063001;28;20283;-85
2022/09/29 05:48:08;;;;;;;1.20;1.20;;;13.20;79.40;13.40;94947.00;;;;5069519;28;21906;-85
2022/09/29 05:50:40;;;;;;;0.90;0.90;;;13.20;79.40;13.40;94956.00;;;;5056048;28;20188;-84
2022/09/29 05:53:08;;;;;;;1.17;1.07;;;13.20;79.40;13.40;94942.00;;;;5060635;28;20223;-84
2022/09/29 05:55:36;;;;;;;1.20;1.20;;;13.20;79.50;13.40;94945.00;;;;5059270;28;20232;-84
2022/09/29 05:58:04;;;;;;;1.10;1.10;;;13.20;79.60;13.40;94953.00;;;;5060134;28;20200;-84
2022/09/29 06:00:32;;;;;;;1.03;0.97;;;13.20;79.60;13.40;94947.00;;;;5036330;28;20203;-84
2022/09/29 06:02:59;;;;;;;1.10;1.10;;;13.20;79.50;13.50;94946.00;;;;5066760;28;20222;-85
2022/09/29 06:05:28;;;;;;;1.23;1.10;;;13.20;79.60;13.50;94951.00;;;;5061949;28;20198;-84
2022/09/29 06:07:56;;;;;;;1.03;1.03;;;13.20;79.60;13.50;94942.00;;;;5071501;28;20247;-84
2022/09/29 06:10:24;;;;;;;2.20;2.00;;;13.20;79.60;13.50;94958.00;;;;5071084;28;20299;-85
2022/09/29 06:12:51;;;;;;;1.53;1.40;;;13.30;79.70;13.50;94956.00;;;;5071948;28;20319;-84
2022/09/29 06:15:18;;;;;;;1.23;1.10;;;13.30;79.70;13.50;94958.00;;;;5068203;28;20619;-84
2022/09/29 06:17:45;;;;;;;1.30;1.20;;;13.30;79.70;13.50;94967.00;;;;5051175;28;20228;-85
2022/09/29 06:20:13;;;;;;;2.60;1.13;;;13.30;79.80;13.60;94956.00;;;;5054996;28;20203;-84
2022/09/29 06:22:40;;;;;;;1.67;1.30;;;13.30;79.90;13.60;94953.00;;;;5060426;28;20311;-84
2022/09/29 06:25:09;;;;;;;1.37;1.27;;;13.30;79.80;13.60;94952.00;;;;5050946;28;20242;-84
2022/09/29 06:27:36;;;;;;;1.30;1.20;;;13.30;79.90;13.60;94952.00;;;;5051675;28;20615;-84
2022/09/29 06:30:05;;;;;;;1.10;1.10;;;13.40;80.00;13.70;94961.00;;;;5051836;28;20196;-84
2022/09/29 06:32:33;;;;;;;1.23;1.13;;;13.40;80.10;13.70;94956.00;;;;5050425;28;20252;-84
2022/09/29 06:37:45;;;;;;;1.30;1.30;;;13.50;80.20;13.80;94968.00;;;;5061042;28;20564;-84
2022/09/29 06:40:14;;;;;;;1.60;1.50;;;13.50;80.20;13.80;94959.00;;;;5071089;28;20196;-84
2022/09/29 06:42:42;;;;;;;1.43;1.10;;;13.50;80.30;13.90;94957.00;;;;5071059;28;20228;-84
2022/09/29 06:45:11;;;;;;;1.90;1.70;;;13.50;80.40;13.90;94957.00;;;;5070454;28;20717;-84
2022/09/29 06:47:38;;;;;;;1.10;1.10;;;13.60;80.50;14.00;94954.00;;;;5070861;28;20249;-85
2022/09/29 06:50:08;;;;;;;0.80;0.80;;;13.60;80.50;14.00;94959.00;;;;5070312;28;20242;-85
2022/09/29 06:52:35;;;;;;;1.27;1.27;;;13.70;80.40;14.00;94957.00;;;;5067138;28;20219;-84
2022/09/29 06:55:03;;;;;;;1.37;1.17;;;13.70;80.40;14.10;94968.00;;;;5070273;28;20273;-84
2022/09/29 06:57:31;;;;;;;1.20;1.10;;;13.70;80.40;14.10;94966.00;;;;5070776;28;20228;-84
2022/09/29 06:59:59;;;;;;;1.33;1.27;;;13.80;80.40;14.20;94962.00;;;;5069575;28;22211;-84
2022/09/29 07:02:26;;;;;;;0.73;0.73;;;13.80;80.30;14.20;94968.00;;;;5069790;28;20239;-84
2022/09/29 07:04:55;;;;;;;1.00;0.80;;;13.80;80.20;14.20;94977.00;;;;5068878;28;20235;-84
2022/09/29 07:07:25;;;;;;;0.90;0.90;;;13.90;80.30;14.20;94975.00;;;;5070096;28;20679;-84
2022/09/29 07:09:52;;;;;;;0.93;0.93;;;13.90;80.30;14.30;94978.00;;;;5069492;28;20234;-84
2022/09/29 07:12:19;;;;;;;1.00;0.90;;;13.90;80.20;14.30;94979.00;;;;5066238;28;20261;-84
2022/09/29 07:14:48;;;;;;;0.83;0.83;;;14.00;80.30;14.40;94984.00;;;;5069888;28;20426;-84
2022/09/29 07:17:18;;;;;;;0.90;0.90;;;14.00;80.30;14.40;94985.00;;;;5070457;28;20238;-84
2022/09/29 07:19:45;;;;;;;1.20;0.90;;;14.10;80.20;14.40;94989.00;;;;5070698;28;20602;-83
2022/09/29 07:22:13;;;;;;;0.90;0.90;;;14.10;80.20;14.50;94989.00;;;;5069947;28;20236;-84
2022/09/29 07:24:42;;;;;;;0.70;0.70;;;14.10;80.20;14.50;94989.00;;;;5067465;28;20196;-83
2022/09/29 07:27:09;;;;;;;0.87;0.87;;;14.20;80.30;14.60;94999.00;;;;5065130;28;20196;-84
2022/09/29 07:29:36;;;;;;;0.97;0.97;;;14.20;80.20;14.60;95005.00;;;;5070378;28;20196;-83
2022/09/29 07:32:08;;;;;;;1.10;1.10;;;14.20;80.00;14.70;95002.00;;;;5069738;28;21472;-84
2022/09/29 07:34:35;;;;;;;1.40;1.03;;;14.30;80.20;14.70;95004.00;;;;5056164;28;20278;-84
2022/09/29 07:37:02;;;;;;;1.33;0.97;;;14.30;80.10;14.80;95007.00;;;;5071262;28;20257;-84
2022/09/29 07:39:29;;;;;;;1.13;0.80;;;14.40;80.00;14.80;95004.00;;;;5062258;28;20224;-84
2022/09/29 07:44:40;;;;;;;0.90;0.90;;;14.40;79.90;14.90;95005.00;;;;5067473;28;20683;-82
2022/09/29 07:47:08;;;;;;;1.00;1.00;;;14.50;80.10;15.00;95004.00;;;;5069558;28;20677;-84
2022/09/29 07:49:36;;;;;;;1.07;0.97;;;14.50;80.00;15.00;95000.00;;;;5070335;28;20551;-84
2022/09/29 07:52:03;;;;;;;1.00;1.00;;;14.60;80.10;15.10;95002.00;;;;5069520;28;20250;-84
2022/09/29 07:54:30;;;;;;;0.80;0.80;;;14.60;80.00;15.20;95010.00;;;;5069928;28;20212;-84
2022/09/29 07:56:59;;;;;;;0.80;0.80;;;14.70;80.00;15.20;95010.00;;;;5069428;28;20200;-83
2022/09/29 07:59:28;;;;;;;1.37;0.90;;;14.70;80.10;15.30;95006.00;;;;5067343;28;20188;-84
2022/09/29 08:01:56;;;;;;;0.73;0.73;;;14.80;80.20;15.40;95012.00;;;;5059293;28;20243;-83
2022/09/29 08:04:24;;;;;;;2.10;0.90;;;14.80;80.10;15.40;95023.00;;;;5069443;28;20204;-84
2022/09/29 08:06:52;;;;;;;0.80;0.80;;;14.90;80.00;15.50;95024.00;;;;5067573;28;20744;-83
2022/09/29 08:09:19;;;;;;;0.80;0.80;;;15.00;79.80;15.60;95023.00;;;;5061293;28;20201;-84
2022/09/29 08:11:46;;;;;;;0.97;0.97;;;15.00;79.70;15.60;95028.00;;;;5068169;28;20302;-84
2022/09/29 08:14:51;;;;;;;;;;;;;;;;;;;;;
2022/09/29 08:17:18;;;;;;;1.03;0.73;;;15.20;79.70;15.80;95030.00;;;;5048525;28;20196;-84
2022/09/29 08:19:47;;;;;;;0.70;0.70;;;15.20;79.80;15.80;95029.00;;;;5070371;28;20204;-83
2022/09/29 08:22:14;;;;;;;0.67;0.67;;;15.30;79.50;15.90;95035.00;;;;5070149;28;20227;-84
2022/09/29 08:24:41;;;;;;;0.67;0.67;;;15.30;79.40;16.00;95023.00;;;;5069040;28;20200;-84
2022/09/29 08:27:09;;;;;;;0.87;0.87;;;15.40;79.40;16.10;95033.00;;;;5069912;28;20188;-84
2022/09/29 08:30:06;;;;;;;1.03;0.93;;;15.50;79.60;16.10;95039.00;;;;5068585;28;20199;-83
2022/09/29 08:32:33;;;;;;;0.60;0.60;;;15.50;79.40;16.20;95032.00;;;;5069017;28;20253;-84
2022/09/29 08:35:02;;;;;;;0.90;0.90;;;15.60;79.30;16.20;95033.00;;;;5072531;28;20196;-84
2022/09/29 08:37:30;;;;;;;0.60;0.60;;;15.70;79.20;16.30;95027.00;;;;5073778;28;20242;-84
2022/09/29 08:39:57;;;;;;;1.10;0.70;;;15.70;79.10;16.30;95036.00;;;;5066223;28;20200;-84
2022/09/29 08:42:34;;;;;;;0.60;0.60;;;15.80;79.00;16.30;95034.00;;;;5071999;28;20648;-83
2022/09/29 08:45:09;;;;;;;0.87;0.70;;;15.80;78.70;16.40;95041.00;;;;5070442;28;20196;-84
2022/09/29 08:47:41;;;;;;;0.47;0.47;;;15.90;78.90;16.40;95032.00;;;;5072944;28;20196;-84
2022/09/29 08:50:20;;;;;;;0.60;0.60;;;15.90;78.80;16.50;95033.00;;;;5073532;28;20232;-84
2022/09/29 08:52:54;;;;;;;0.40;0.40;;;15.90;78.40;16.50;95033.00;;;;5072400;28;20250;-84
2022/09/29 08:55:33;;;;;;;0.60;0.60;;;16.00;78.40;16.50;95030.00;;;;5073007;28;20284;-84
2022/09/29 08:58:02;;;;;;;0.70;0.70;;;16.00;78.40;16.60;95024.00;;;;5071521;28;20286;-84
2022/09/29 09:00:42;;;;;;;0.77;0.77;;;16.10;78.50;16.60;95019.00;;;;5072446;28;20188;-84
2022/09/29 09:03:50;;;;;;;0.60;0.60;;;16.10;78.50;16.70;95020.00;;;;5067859;28;20283;-84
2022/09/29 09:06:36;;;;;;;0.50;0.50;;;16.20;78.00;16.70;95026.00;;;;5065422;28;20278;-84
2022/09/29 09:09:51;;;;;;;0.50;0.50;;;16.20;77.40;16.70;95023.00;;;;5072011;28;20184;-84
2022/09/29 09:12:53;;;;;;;0.43;0.43;;;16.30;77.50;16.80;95023.00;;;;5056216;28;20254;-84
2022/09/29 09:15:41;;;;;;;0.37;0.30;;;16.30;77.50;16.80;95041.00;;;;5066806;28;20565;-84
2022/09/29 09:18:32;;;;;;;0.50;0.50;;;16.40;77.20;16.90;95032.00;;;;5071665;28;20192;-84
2022/09/29 09:21:08;;;;;;;0.37;0.37;;;16.40;77.70;17.00;95034.00;;;;5066113;28;20344;-84
2022/09/29 09:23:53;;;;;;;0.40;0.40;;;16.40;78.00;17.10;95036.00;;;;5068896;28;20206;-83
2022/09/29 09:26:33;;;;;;;0.30;0.30;;;16.50;77.60;17.10;95028.00;;;;5070158;28;20211;-84
2022/09/29 09:29:06;;;;;;;0.63;0.60;;;16.50;77.60;17.10;95032.00;;;;5055763;28;20188;-84
2022/09/29 09:31:41;;;;;;;0.47;0.47;;;16.60;77.00;17.20;95034.00;;;;5069361;28;20618;-84
2022/09/29 09:34:18;;;;;;;0.57;0.53;;;16.60;76.90;17.20;95042.00;;;;5066360;28;20324;-84
2022/09/29 09:36:52;;;;;;;0.50;0.50;;;16.70;77.00;17.20;95040.00;;;;5067669;28;20216;-84
2022/09/29 09:39:29;;;;;;;0.77;0.57;;;16.70;77.10;17.30;95038.00;;;;5056189;28;20618;-84
2022/09/29 09:42:01;;;;;;;0.60;0.60;;;16.70;77.00;17.30;95033.00;;;;5052354;28;20216;-84
2022/09/29 09:44:36;;;;;;;1.17;0.70;;;16.80;77.00;17.30;95032.00;;;;5058629;28;20200;-84
2022/09/29 09:47:15;;;;;;;0.40;0.40;;;16.80;76.70;17.30;95037.00;;;;5072125;28;20202;-84
2022/09/29 09:49:50;;;;;;;0.63;0.50;;;16.80;76.80;17.30;95042.00;;;;5071300;28;20275;-84
2022/09/29 09:52:24;;;;;;;0.50;0.50;;;16.80;76.80;17.40;95032.00;;;;5071048;28;20230;-84
2022/09/29 09:54:58;;;;;;;0.50;0.43;;;16.90;76.50;17.30;95049.00;;;;5062717;28;20520;-84
2022/09/29 09:58:10;;;;;;;0.63;0.63;;;16.90;76.10;17.30;95049.00;;;;5063276;28;20204;-84
2022/09/29 10:00:44;;;;;;;0.60;0.60;;;16.90;75.60;17.30;95047.00;;;;5054491;28;20192;-84
2022/09/29 10:03:15;;;;;;;0.70;0.50;;;16.90;75.60;17.30;95045.00;;;;5071477;28;20195;-84
2022/09/29 10:05:45;;;;;;;0.50;0.50;;;16.80;75.70;17.20;95043.00;;;;5064118;28;20259;-83
2022/09/29 10:08:23;;;;;;;0.50;0.50;;;16.80;75.70;17.20;95048.00;;;;5072045;28;20204;-83
2022/09/29 10:10:52;;;;;;;1.43;0.67;;;16.80;75.80;17.20;95052.00;;;;5058913;28;20227;-84
2022/09/29 10:13:20;;;;;;;0.70;0.53;;;16.80;75.60;17.20;95046.00;;;;5071867;28;20610;-84
2022/09/29 10:15:56;;;;;;;0.60;0.60;;;16.80;75.90;17.30;95055.00;;;;5070109;28;20207;-83
2022/09/29 10:18:29;;;;;;;0.90;0.60;;;16.80;75.70;17.30;95052.00;;;;5071159;28;20203;-83
2022/09/29 10:20:57;;;;;;;0.60;0.60;;;16.80;75.50;17.30;95056.00;;;;5065581;28;20236;-84
2022/09/29 10:23:30;;;;;;;0.70;0.70;;;16.80;75.80;17.20;95054.00;;;;5050311;28;20652;-84
2022/09/29 10:26:12;;;;;;;0.93;0.60;;;16.80;75.50;17.20;95057.00;;;;5062227;28;20607;-84
2022/09/29 10:28:45;;;;;;;0.77;0.77;;;16.80;75.40;17.20;95065.00;;;;5072114;28;20207;-84
2022/09/29 10:31:23;;;;;;;0.50;0.50;;;16.80;75.60;17.20;95057.00;;;;5070417;28;20218;-83
2022/09/29 10:33:56;;;;;;;0.60;0.60;;;16.80;75.60;17.10;95061.00;;;;5071245;28;20224;-84
2022/09/29 10:36:26;;;;;;;0.57;0.50;;;16.70;75.80;17.10;95059.00;;;;5056878;28;20220;-84
2022/09/29 10:38:55;;;;;;;0.50;0.50;;;16.70;75.80;17.10;95065.00;;;;5067969;28;20239;-83
2022/09/29 10:41:24;;;;;;;1.03;0.50;;;16.70;75.80;17.00;95068.00;;;;5065120;28;20220;-83
2022/09/29 10:43:52;;;;;;;0.40;0.40;;;16.70;75.80;17.00;95068.00;;;;5061626;28;20291;-84
2022/09/29 10:46:50;;;;;;;0.40;0.40;;;16.70;76.00;17.00;95071.00;;;;5071240;28;20204;-85
2022/09/29 10:49:20;;;;;;;0.67;0.33;;;16.70;75.70;17.00;95067.00;;;;5059862;28;20271;-83
2022/09/29 10:52:00;;;;;;;0.53;0.53;;;16.60;75.80;17.00;95082.00;;;;5066429;28;20243;-83
2022/09/29 10:54:32;;;;;;;0.77;0.40;;;16.60;75.40;17.00;95080.00;;;;5070459;28;20250;-85
2022/09/29 10:57:12;;;;;;;0.60;0.60;;;16.60;75.80;17.00;95078.00;;;;5070154;28;20193;-85
2022/09/29 10:59:51;;;;;;;0.40;0.40;;;16.60;76.10;17.00;95072.00;;;;5060075;28;20219;-85
2022/09/29 11:02:28;;;;;;;0.90;0.53;;;16.60;75.90;17.00;95078.00;;;;5060826;28;20211;-85
2022/09/29 11:05:01;;;;;;;1.00;0.60;;;16.60;76.00;17.00;95086.00;;;;5058048;28;20632;-85
2022/09/29 11:07:30;;;;;;;0.70;0.67;;;16.60;76.20;17.00;95079.00;;;;5065283;28;20271;-85
2022/09/29 11:09:58;;;;;;;0.60;0.60;;;16.60;76.20;17.00;95089.00;;;;5076250;23;20224;-80
2022/09/29 11:12:34;;;;;;;0.90;0.77;;;16.60;75.70;17.00;95084.00;;;;5044589;28;20296;-81
2022/09/29 11:15:21;;;;;;;0.90;0.50;;;16.60;75.40;17.00;95085.00;;;;5034657;28;20223;-81
2022/09/29 11:17:51;;;;;;;0.40;0.40;;;16.60;75.60;17.00;95079.00;;;;5050994;28;20961;-81
2022/09/29 11:20:19;;;;;;;0.67;0.60;;;16.60;75.60;17.00;95082.00;;;;5056025;28;20634;-81
2022/09/29 11:23:13;;;;;;;1.40;0.80;;;16.60;75.80;17.00;95084.00;;;;5052376;28;20634;-81
2022/09/29 11:26:23;;;;;;;1.27;0.60;;;16.60;75.80;17.00;95094.00;;;;5051955;28;20630;-80
2022/09/29 11:29:17;;;;;;;0.57;0.57;;;16.60;75.80;17.00;95091.00;;;;5046908;28;20192;-80
2022/09/29 11:32:25;;;;;;;0.50;0.50;;;16.60;75.80;16.90;95091.00;;;;5045490;28;20248;-80